Oneco, Florida
Current Conditions -  °F | °C
As of 8:09 AM on Sunday 23 Nov 2014 (Local Time) from KSRQ Reporting Station
Broken Clouds Broken Clouds  
Wind Chill: 74°   Ceiling: 2400
Heat Index: 74°   Visibility: 10mi
Dew Point: 71°   Wind: 16mph
Humidity: 91%   Direction: 140°SE
Pressure: 29.98"   Gusts: NA
Location:  27.45°N, 82.55°W
Report Text: KSRQ 231309Z 14014KT 10SM SCT011 BKN024 23/22 A2998 RMK AO2 T02330217
Loading
Personal Weather Stations






























Interactive Weather Map New forecast layout! Learn more

10-Day Weather Forecast

Advertisements
Track Severe Weather on mobile